Jacksonville, FL (32207)

6:39 PM EDT on August 27, 2015 (GMT -0400)
San Marco | | Change Station
CLOSE
Current Station
Personal Weather Station
Location: Jacksonville, FL
Elevation: 39 ft
Nearby Weather Stations

Elev 39 ft 30.29 °N, 81.64 °W | Updated 16 seconds ago

Mostly Cloudy
Mostly Cloudy
84.7 °F
Feels Like 96 °F
N
2.0
Wind Variable Wind from NNE
Gusts 4.0 mph

Today
High -- | Low -- °F
--% Chance of Precip.
Yesterday
High -- | Low -- °F
Precip. -- in
7:00 AM 7:55 PM
Waxing Gibbous, 95% visible
Pressure 29.92 in
Visibility 10.0 miles
Clouds Scattered Clouds 4500 ft
Scattered Clouds 10000 ft
Mostly Cloudy 25000 ft
Heat Index 96 °F
Dew Point 78 °F
Humidity 80%
Rainfall 0.14 in
Snow Depth Not available.
UV 2 out of 12
Pollen 7.20 out of 12
Air Quality Not available.
Flu Activity Not available.
METAR KNIP 272153Z 12007KT 10SM SCT045 SCT100 BKN250 33/23 A2993 RMK AO2 TSE44 SLP130 T1 SET T03280233 $
Pressure 29.92 in
Visibility 10.0 miles
Clouds Scattered Clouds 4500 ft
Scattered Clouds 10000 ft
Mostly Cloudy 25000 ft
Heat Index 96 °F
Dew Point 78 °F
Humidity 80%
Rainfall 0.14 in
Snow Depth Not available.
UV 2 out of 12
Pollen 7.20 out of 12
Air Quality Not available.
Flu Activity Not available.
METAR KNIP 272153Z 12007KT 10SM SCT045 SCT100 BKN250 33/23 A2993 RMK AO2 TSE44 SLP130 T1 SET T03280233 $
Tropical Storm Erika remains unorganized as it travels through the northeast Caribbean Sea. The storm has already dumped 5-10 inches of rain on the Lesser Antilles, with more rain anticipated for Puerto Rico and Hispaniola. This will be much-needed rain for those islands. Erika is not forecast to reach hurricane strength until Monday when it curves northward along the east coast of Florida. Follow the live blog

10-Day Weather Forecast

×

Almanac

Astronomy

Aug. 27, 2015 Rise Set
Actual Time
Civil Twilight
Nautical Twilight
Astronomical Twilight
Moon
Length of Visible Light
Length of Day
Tomorrow will be .
, % of the Moon is Illuminated

Today's Extremes

State Highs State Lows

Community

WunderPhotos

Upload Photos

1,850,252 photos uploaded!

WunderBlogs® & News

Nearby

Air Quality

  Air Quality AQ Index Pollutant
Not available.

Snow Depth

Station Depth Elevation

Earthquake Activity

City Distance Mag. Time & Date
Minimum magnitude displayed is 2.5.

Coastal Water Temperatures

Place Temperature

Stations

Nearby Weather Stations

Station Location Temp. Windchill Dew Point Humidity Wind Precip. Elev Updated Type